sensor_id;sensor_type;location;lat;lon;timestamp;P1;durP1;ratioP1;P2;durP2;ratioP2
6394;SDS011;3230;42.588;23.358;2023-02-25T00:01:18;17.90;;;6.90;;
6394;SDS011;3230;42.588;23.358;2023-02-25T00:03:43;17.30;;;6.57;;
6394;SDS011;3230;42.588;23.358;2023-02-25T00:06:09;15.63;;;6.43;;
6394;SDS011;3230;42.588;23.358;2023-02-25T00:08:37;20.63;;;7.50;;
6394;SDS011;3230;42.588;23.358;2023-02-25T00:11:03;20.00;;;8.17;;
6394;SDS011;3230;42.588;23.358;2023-02-25T00:13:29;15.23;;;7.27;;
6394;SDS011;3230;42.588;23.358;2023-02-25T00:15:55;17.03;;;5.60;;
6394;SDS011;3230;42.588;23.358;2023-02-25T00:18:23;20.17;;;6.10;;
6394;SDS011;3230;42.588;23.358;2023-02-25T00:20:48;15.37;;;6.80;;
6394;SDS011;3230;42.588;23.358;2023-02-25T00:23:13;16.17;;;6.70;;
6394;SDS011;3230;42.588;23.358;2023-02-25T00:25:38;14.23;;;5.30;;
6394;SDS011;3230;42.588;23.358;2023-02-25T00:28:04;17.53;;;5.80;;
6394;SDS011;3230;42.588;23.358;2023-02-25T00:30:30;12.77;;;6.67;;
6394;SDS011;3230;42.588;23.358;2023-02-25T00:32:56;14.17;;;5.70;;
6394;SDS011;3230;42.588;23.358;2023-02-25T00:35:21;11.43;;;5.60;;
6394;SDS011;3230;42.588;23.358;2023-02-25T00:37:46;21.27;;;6.73;;
6394;SDS011;3230;42.588;23.358;2023-02-25T00:40:14;14.33;;;6.50;;
6394;SDS011;3230;42.588;23.358;2023-02-25T00:42:40;19.10;;;6.30;;
6394;SDS011;3230;42.588;23.358;2023-02-25T00:45:05;14.93;;;5.80;;
6394;SDS011;3230;42.588;23.358;2023-02-25T00:47:31;13.97;;;6.53;;
6394;SDS011;3230;42.588;23.358;2023-02-25T00:49:56;14.57;;;6.23;;
6394;SDS011;3230;42.588;23.358;2023-02-25T00:52:21;16.73;;;6.30;;
6394;SDS011;3230;42.588;23.358;2023-02-25T00:54:47;24.63;;;7.50;;
6394;SDS011;3230;42.588;23.358;2023-02-25T00:57:12;25.33;;;6.40;;
6394;SDS011;3230;42.588;23.358;2023-02-25T00:59:37;21.93;;;6.33;;
6394;SDS011;3230;42.588;23.358;2023-02-25T01:02:02;18.43;;;6.70;;
6394;SDS011;3230;42.588;23.358;2023-02-25T01:04:28;11.20;;;5.80;;
6394;SDS011;3230;42.588;23.358;2023-02-25T01:06:53;21.47;;;6.57;;
6394;SDS011;3230;42.588;23.358;2023-02-25T01:09:18;16.80;;;6.70;;
6394;SDS011;3230;42.588;23.358;2023-02-25T01:11:44;12.83;;;6.50;;
6394;SDS011;3230;42.588;23.358;2023-02-25T01:14:12;19.50;;;7.33;;
6394;SDS011;3230;42.588;23.358;2023-02-25T01:16:37;17.33;;;6.20;;
6394;SDS011;3230;42.588;23.358;2023-02-25T01:19:05;22.57;;;6.93;;
6394;SDS011;3230;42.588;23.358;2023-02-25T01:21:34;15.57;;;7.93;;
6394;SDS011;3230;42.588;23.358;2023-02-25T01:24:01;19.23;;;7.60;;
6394;SDS011;3230;42.588;23.358;2023-02-25T01:26:28;20.30;;;6.23;;
6394;SDS011;3230;42.588;23.358;2023-02-25T01:28:53;17.73;;;7.00;;
6394;SDS011;3230;42.588;23.358;2023-02-25T01:31:20;14.03;;;6.77;;
6394;SDS011;3230;42.588;23.358;2023-02-25T01:34:02;17.93;;;7.17;;
6394;SDS011;3230;42.588;23.358;2023-02-25T01:36:28;22.67;;;7.40;;
6394;SDS011;3230;42.588;23.358;2023-02-25T01:38:54;20.17;;;8.27;;
6394;SDS011;3230;42.588;23.358;2023-02-25T01:41:20;18.50;;;8.70;;
6394;SDS011;3230;42.588;23.358;2023-02-25T01:46:27;20.27;;;6.73;;
6394;SDS011;3230;42.588;23.358;2023-02-25T01:48:53;18.27;;;8.43;;
6394;SDS011;3230;42.588;23.358;2023-02-25T01:51:19;20.05;;;9.35;;
6394;SDS011;3230;42.588;23.358;2023-02-25T01:53:47;22.17;;;11.40;;
6394;SDS011;3230;42.588;23.358;2023-02-25T01:56:13;22.33;;;9.73;;
6394;SDS011;3230;42.588;23.358;2023-02-25T01:58:41;20.33;;;9.40;;
6394;SDS011;3230;42.588;23.358;2023-02-25T02:01:10;18.50;;;8.83;;
6394;SDS011;3230;42.588;23.358;2023-02-25T02:03:36;18.75;;;9.57;;
6394;SDS011;3230;42.588;23.358;2023-02-25T02:08:28;19.00;;;10.57;;
6394;SDS011;3230;42.588;23.358;2023-02-25T02:10:54;21.85;;;9.95;;
6394;SDS011;3230;42.588;23.358;2023-02-25T02:13:21;18.85;;;9.35;;
6394;SDS011;3230;42.588;23.358;2023-02-25T02:15:56;18.63;;;9.73;;
6394;SDS011;3230;42.588;23.358;2023-02-25T02:18:23;17.98;;;8.35;;
6394;SDS011;3230;42.588;23.358;2023-02-25T02:38:52;16.03;;;5.23;;
6394;SDS011;3230;42.588;23.358;2023-02-25T02:43:57;16.17;;;5.70;;
6394;SDS011;3230;42.588;23.358;2023-02-25T02:46:26;10.00;;;4.50;;
6394;SDS011;3230;42.588;23.358;2023-02-25T02:51:29;15.60;;;6.50;;
6394;SDS011;3230;42.588;23.358;2023-02-25T02:53:56;20.83;;;5.93;;
6394;SDS011;3230;42.588;23.358;2023-02-25T02:56:23;17.40;;;5.10;;
6394;SDS011;3230;42.588;23.358;2023-02-25T02:59:24;24.00;;;6.10;;
6394;SDS011;3230;42.588;23.358;2023-02-25T03:01:42;11.77;;;4.93;;
6394;SDS011;3230;42.588;23.358;2023-02-25T03:04:12;10.27;;;5.00;;
6394;SDS011;3230;42.588;23.358;2023-02-25T03:06:44;17.10;;;5.37;;
6394;SDS011;3230;42.588;23.358;2023-02-25T03:09:15;15.80;;;5.70;;
6394;SDS011;3230;42.588;23.358;2023-02-25T03:11:42;23.77;;;6.50;;
6394;SDS011;3230;42.588;23.358;2023-02-25T03:14:07;19.23;;;5.27;;
6394;SDS011;3230;42.588;23.358;2023-02-25T03:16:40;13.27;;;5.20;;
6394;SDS011;3230;42.588;23.358;2023-02-25T03:21:41;12.30;;;4.73;;
6394;SDS011;3230;42.588;23.358;2023-02-25T03:24:08;14.43;;;5.30;;
6394;SDS011;3230;42.588;23.358;2023-02-25T03:26:34;18.33;;;5.33;;
6394;SDS011;3230;42.588;23.358;2023-02-25T03:29:00;16.73;;;4.47;;
6394;SDS011;3230;42.588;23.358;2023-02-25T03:31:34;12.93;;;4.77;;
6394;SDS011;3230;42.588;23.358;2023-02-25T03:34:14;12.07;;;5.50;;
6394;SDS011;3230;42.588;23.358;2023-02-25T03:36:43;13.80;;;5.07;;
6394;SDS011;3230;42.588;23.358;2023-02-25T03:39:10;15.93;;;5.17;;
6394;SDS011;3230;42.588;23.358;2023-02-25T03:41:38;16.50;;;5.37;;
6394;SDS011;3230;42.588;23.358;2023-02-25T03:44:06;20.60;;;6.60;;
6394;SDS011;3230;42.588;23.358;2023-02-25T03:46:32;14.57;;;5.50;;
6394;SDS011;3230;42.588;23.358;2023-02-25T03:49:00;15.10;;;4.60;;
6394;SDS011;3230;42.588;23.358;2023-02-25T03:51:33;17.00;;;5.10;;
6394;SDS011;3230;42.588;23.358;2023-02-25T03:53:59;11.03;;;4.60;;
6394;SDS011;3230;42.588;23.358;2023-02-25T03:56:27;13.87;;;5.57;;
6394;SDS011;3230;42.588;23.358;2023-02-25T03:58:53;7.73;;;4.80;;
6394;SDS011;3230;42.588;23.358;2023-02-25T04:01:27;14.20;;;5.53;;
6394;SDS011;3230;42.588;23.358;2023-02-25T04:03:54;18.20;;;7.13;;
6394;SDS011;3230;42.588;23.358;2023-02-25T04:06:20;19.63;;;5.80;;
6394;SDS011;3230;42.588;23.358;2023-02-25T04:08:47;13.87;;;5.47;;
6394;SDS011;3230;42.588;23.358;2023-02-25T04:11:12;16.50;;;6.47;;
6394;SDS011;3230;42.588;23.358;2023-02-25T04:13:37;12.43;;;5.23;;
6394;SDS011;3230;42.588;23.358;2023-02-25T04:16:03;16.37;;;7.40;;
6394;SDS011;3230;42.588;23.358;2023-02-25T04:18:28;15.03;;;5.00;;
6394;SDS011;3230;42.588;23.358;2023-02-25T04:20:54;12.83;;;4.90;;
6394;SDS011;3230;42.588;23.358;2023-02-25T04:23:19;10.30;;;4.60;;
6394;SDS011;3230;42.588;23.358;2023-02-25T04:25:44;13.27;;;5.03;;
6394;SDS011;3230;42.588;23.358;2023-02-25T04:28:10;15.87;;;4.30;;
6394;SDS011;3230;42.588;23.358;2023-02-25T04:30:35;12.63;;;5.13;;
6394;SDS011;3230;42.588;23.358;2023-02-25T04:33:00;15.07;;;4.90;;
6394;SDS011;3230;42.588;23.358;2023-02-25T04:35:26;15.00;;;4.90;;
6394;SDS011;3230;42.588;23.358;2023-02-25T04:37:51;16.70;;;6.13;;
6394;SDS011;3230;42.588;23.358;2023-02-25T04:40:18;14.87;;;5.93;;
6394;SDS011;3230;42.588;23.358;2023-02-25T04:42:43;16.63;;;5.00;;
6394;SDS011;3230;42.588;23.358;2023-02-25T04:45:09;8.83;;;4.40;;
6394;SDS011;3230;42.588;23.358;2023-02-25T04:47:35;19.67;;;5.13;;
6394;SDS011;3230;42.588;23.358;2023-02-25T04:50:00;11.67;;;3.97;;
6394;SDS011;3230;42.588;23.358;2023-02-25T04:52:26;15.17;;;4.63;;
6394;SDS011;3230;42.588;23.358;2023-02-25T04:54:51;9.50;;;4.30;;
6394;SDS011;3230;42.588;23.358;2023-02-25T04:57:17;13.00;;;4.30;;
6394;SDS011;3230;42.588;23.358;2023-02-25T04:59:42;17.07;;;5.50;;
6394;SDS011;3230;42.588;23.358;2023-02-25T05:02:07;18.50;;;5.70;;
6394;SDS011;3230;42.588;23.358;2023-02-25T05:04:33;9.70;;;4.60;;
6394;SDS011;3230;42.588;23.358;2023-02-25T05:06:59;18.20;;;5.20;;
6394;SDS011;3230;42.588;23.358;2023-02-25T05:09:24;19.60;;;4.73;;
6394;SDS011;3230;42.588;23.358;2023-02-25T05:11:49;18.90;;;4.57;;
6394;SDS011;3230;42.588;23.358;2023-02-25T05:14:14;14.40;;;5.67;;
6394;SDS011;3230;42.588;23.358;2023-02-25T05:16:40;13.90;;;5.33;;
6394;SDS011;3230;42.588;23.358;2023-02-25T05:19:05;12.10;;;4.60;;
6394;SDS011;3230;42.588;23.358;2023-02-25T05:21:30;13.33;;;5.83;;
6394;SDS011;3230;42.588;23.358;2023-02-25T05:23:56;15.03;;;5.40;;
6394;SDS011;3230;42.588;23.358;2023-02-25T05:26:22;15.67;;;7.10;;
6394;SDS011;3230;42.588;23.358;2023-02-25T05:28:51;13.60;;;3.40;;
6394;SDS011;3230;42.588;23.358;2023-02-25T05:31:17;11.57;;;6.27;;
6394;SDS011;3230;42.588;23.358;2023-02-25T05:33:42;18.07;;;7.07;;
6394;SDS011;3230;42.588;23.358;2023-02-25T05:36:08;12.50;;;6.60;;
6394;SDS011;3230;42.588;23.358;2023-02-25T05:38:34;11.83;;;7.27;;
6394;SDS011;3230;42.588;23.358;2023-02-25T05:40:59;19.67;;;7.80;;
6394;SDS011;3230;42.588;23.358;2023-02-25T05:43:25;16.07;;;6.73;;
6394;SDS011;3230;42.588;23.358;2023-02-25T05:45:53;17.27;;;6.90;;
6394;SDS011;3230;42.588;23.358;2023-02-25T05:48:19;18.17;;;7.07;;
6394;SDS011;3230;42.588;23.358;2023-02-25T05:50:44;14.40;;;5.83;;
6394;SDS011;3230;42.588;23.358;2023-02-25T05:53:09;16.00;;;6.83;;
6394;SDS011;3230;42.588;23.358;2023-02-25T05:55:39;15.00;;;7.00;;
6394;SDS011;3230;42.588;23.358;2023-02-25T05:58:04;16.73;;;7.30;;
6394;SDS011;3230;42.588;23.358;2023-02-25T06:00:29;14.73;;;7.07;;
6394;SDS011;3230;42.588;23.358;2023-02-25T06:02:54;19.53;;;7.37;;
6394;SDS011;3230;42.588;23.358;2023-02-25T06:05:20;17.87;;;6.60;;
6394;SDS011;3230;42.588;23.358;2023-02-25T06:07:45;19.47;;;7.03;;
6394;SDS011;3230;42.588;23.358;2023-02-25T06:10:10;14.77;;;7.67;;
6394;SDS011;3230;42.588;23.358;2023-02-25T06:12:36;24.50;;;8.30;;
6394;SDS011;3230;42.588;23.358;2023-02-25T06:15:02;21.13;;;7.60;;
6394;SDS011;3230;42.588;23.358;2023-02-25T06:17:27;15.97;;;8.20;;
6394;SDS011;3230;42.588;23.358;2023-02-25T06:19:52;18.53;;;7.93;;
6394;SDS011;3230;42.588;23.358;2023-02-25T06:22:18;16.83;;;8.47;;
6394;SDS011;3230;42.588;23.358;2023-02-25T06:24:44;24.83;;;8.40;;
6394;SDS011;3230;42.588;23.358;2023-02-25T06:27:09;21.80;;;9.87;;
6394;SDS011;3230;42.588;23.358;2023-02-25T06:29:35;19.70;;;8.90;;
6394;SDS011;3230;42.588;23.358;2023-02-25T06:32:00;21.93;;;8.87;;
6394;SDS011;3230;42.588;23.358;2023-02-25T06:34:30;19.00;;;8.90;;
6394;SDS011;3230;42.588;23.358;2023-02-25T06:36:57;22.87;;;9.50;;
6394;SDS011;3230;42.588;23.358;2023-02-25T06:39:22;18.97;;;8.30;;
6394;SDS011;3230;42.588;23.358;2023-02-25T06:41:47;19.47;;;8.97;;
6394;SDS011;3230;42.588;23.358;2023-02-25T06:44:13;18.63;;;8.67;;
6394;SDS011;3230;42.588;23.358;2023-02-25T06:46:38;20.23;;;8.90;;
6394;SDS011;3230;42.588;23.358;2023-02-25T06:49:04;16.90;;;6.93;;
6394;SDS011;3230;42.588;23.358;2023-02-25T06:51:29;15.70;;;7.13;;
6394;SDS011;3230;42.588;23.358;2023-02-25T06:53:54;19.10;;;8.10;;
6394;SDS011;3230;42.588;23.358;2023-02-25T06:56:20;19.63;;;8.60;;
6394;SDS011;3230;42.588;23.358;2023-02-25T06:58:45;17.70;;;7.60;;
6394;SDS011;3230;42.588;23.358;2023-02-25T07:01:12;19.97;;;9.17;;
6394;SDS011;3230;42.588;23.358;2023-02-25T07:03:38;19.83;;;9.27;;
6394;SDS011;3230;42.588;23.358;2023-02-25T07:06:04;21.40;;;8.50;;
6394;SDS011;3230;42.588;23.358;2023-02-25T07:08:29;17.93;;;7.67;;
6394;SDS011;3230;42.588;23.358;2023-02-25T07:10:55;14.73;;;7.70;;
6394;SDS011;3230;42.588;23.358;2023-02-25T07:13:20;23.53;;;8.30;;
6394;SDS011;3230;42.588;23.358;2023-02-25T07:15:45;26.13;;;8.80;;
6394;SDS011;3230;42.588;23.358;2023-02-25T07:18:11;20.70;;;9.30;;
6394;SDS011;3230;42.588;23.358;2023-02-25T07:20:36;21.13;;;8.67;;
6394;SDS011;3230;42.588;23.358;2023-02-25T07:23:04;20.27;;;8.53;;
6394;SDS011;3230;42.588;23.358;2023-02-25T07:25:29;15.77;;;7.80;;
6394;SDS011;3230;42.588;23.358;2023-02-25T07:27:54;15.70;;;7.57;;
6394;SDS011;3230;42.588;23.358;2023-02-25T07:30:19;20.30;;;7.83;;
6394;SDS011;3230;42.588;23.358;2023-02-25T07:32:45;14.40;;;7.13;;
6394;SDS011;3230;42.588;23.358;2023-02-25T07:35:10;24.40;;;7.80;;
6394;SDS011;3230;42.588;23.358;2023-02-25T07:37:35;18.73;;;7.00;;
6394;SDS011;3230;42.588;23.358;2023-02-25T07:40:01;12.90;;;6.53;;
6394;SDS011;3230;42.588;23.358;2023-02-25T07:42:27;25.67;;;7.60;;
6394;SDS011;3230;42.588;23.358;2023-02-25T07:44:53;24.20;;;8.17;;
6394;SDS011;3230;42.588;23.358;2023-02-25T07:47:19;18.40;;;7.40;;
6394;SDS011;3230;42.588;23.358;2023-02-25T07:49:44;16.40;;;7.80;;
6394;SDS011;3230;42.588;23.358;2023-02-25T07:52:10;22.07;;;7.63;;
6394;SDS011;3230;42.588;23.358;2023-02-25T07:54:35;26.30;;;8.70;;
6394;SDS011;3230;42.588;23.358;2023-02-25T07:57:00;26.40;;;14.40;;
6394;SDS011;3230;42.588;23.358;2023-02-25T07:59:25;43.47;;;27.10;;
6394;SDS011;3230;42.588;23.358;2023-02-25T08:01:51;20.73;;;8.30;;
6394;SDS011;3230;42.588;23.358;2023-02-25T08:04:16;19.90;;;8.43;;
6394;SDS011;3230;42.588;23.358;2023-02-25T08:06:41;15.00;;;8.07;;
6394;SDS011;3230;42.588;23.358;2023-02-25T08:09:07;18.93;;;8.50;;
6394;SDS011;3230;42.588;23.358;2023-02-25T08:11:35;20.13;;;8.10;;
6394;SDS011;3230;42.588;23.358;2023-02-25T08:14:00;15.20;;;6.70;;
6394;SDS011;3230;42.588;23.358;2023-02-25T08:16:25;28.30;;;7.73;;
6394;SDS011;3230;42.588;23.358;2023-02-25T08:18:51;18.17;;;7.63;;
6394;SDS011;3230;42.588;23.358;2023-02-25T08:21:17;14.87;;;7.03;;
6394;SDS011;3230;42.588;23.358;2023-02-25T08:23:42;17.60;;;7.50;;
6394;SDS011;3230;42.588;23.358;2023-02-25T08:26:08;31.13;;;8.47;;
6394;SDS011;3230;42.588;23.358;2023-02-25T08:28:34;14.87;;;7.50;;
6394;SDS011;3230;42.588;23.358;2023-02-25T08:30:59;17.73;;;6.77;;
6394;SDS011;3230;42.588;23.358;2023-02-25T08:33:25;17.90;;;7.33;;
6394;SDS011;3230;42.588;23.358;2023-02-25T08:35:50;17.87;;;7.37;;
6394;SDS011;3230;42.588;23.358;2023-02-25T08:38:16;16.27;;;5.80;;
6394;SDS011;3230;42.588;23.358;2023-02-25T08:40:41;14.50;;;6.50;;
6394;SDS011;3230;42.588;23.358;2023-02-25T08:43:07;18.47;;;7.90;;
6394;SDS011;3230;42.588;23.358;2023-02-25T08:45:33;15.07;;;7.30;;
6394;SDS011;3230;42.588;23.358;2023-02-25T08:47:58;24.90;;;7.53;;
6394;SDS011;3230;42.588;23.358;2023-02-25T08:50:24;14.93;;;6.37;;
6394;SDS011;3230;42.588;23.358;2023-02-25T08:52:49;13.10;;;4.73;;
6394;SDS011;3230;42.588;23.358;2023-02-25T08:55:15;17.77;;;4.47;;
6394;SDS011;3230;42.588;23.358;2023-02-25T08:57:41;22.83;;;4.43;;
6394;SDS011;3230;42.588;23.358;2023-02-25T09:00:06;20.23;;;7.63;;
6394;SDS011;3230;42.588;23.358;2023-02-25T09:02:33;23.73;;;4.40;;
6394;SDS011;3230;42.588;23.358;2023-02-25T09:04:59;18.63;;;4.80;;
6394;SDS011;3230;42.588;23.358;2023-02-25T09:07:24;13.67;;;4.97;;
6394;SDS011;3230;42.588;23.358;2023-02-25T09:09:49;20.87;;;4.10;;
6394;SDS011;3230;42.588;23.358;2023-02-25T09:12:14;18.13;;;4.47;;
6394;SDS011;3230;42.588;23.358;2023-02-25T09:14:40;8.40;;;3.47;;
6394;SDS011;3230;42.588;23.358;2023-02-25T09:17:05;13.73;;;3.60;;
6394;SDS011;3230;42.588;23.358;2023-02-25T09:19:31;23.97;;;4.90;;
6394;SDS011;3230;42.588;23.358;2023-02-25T09:21:57;25.27;;;4.73;;
6394;SDS011;3230;42.588;23.358;2023-02-25T09:24:22;14.63;;;3.90;;
6394;SDS011;3230;42.588;23.358;2023-02-25T09:26:48;30.27;;;3.40;;
6394;SDS011;3230;42.588;23.358;2023-02-25T09:29:13;20.43;;;4.63;;
6394;SDS011;3230;42.588;23.358;2023-02-25T09:31:38;15.70;;;4.00;;
6394;SDS011;3230;42.588;23.358;2023-02-25T09:34:06;16.07;;;3.43;;
6394;SDS011;3230;42.588;23.358;2023-02-25T09:36:31;20.10;;;4.50;;
6394;SDS011;3230;42.588;23.358;2023-02-25T09:38:57;16.80;;;3.20;;
6394;SDS011;3230;42.588;23.358;2023-02-25T09:44:04;9.37;;;3.73;;
6394;SDS011;3230;42.588;23.358;2023-02-25T09:46:32;15.83;;;4.10;;
6394;SDS011;3230;42.588;23.358;2023-02-25T09:51:58;15.27;;;3.40;;
6394;SDS011;3230;42.588;23.358;2023-02-25T09:54:39;14.40;;;4.13;;
6394;SDS011;3230;42.588;23.358;2023-02-25T09:57:08;14.33;;;3.80;;
6394;SDS011;3230;42.588;23.358;2023-02-25T09:59:36;22.63;;;3.40;;
6394;SDS011;3230;42.588;23.358;2023-02-25T10:04:50;13.73;;;4.83;;
6394;SDS011;3230;42.588;23.358;2023-02-25T10:07:20;12.20;;;3.53;;
6394;SDS011;3230;42.588;23.358;2023-02-25T10:10:08;17.63;;;5.00;;
6394;SDS011;3230;42.588;23.358;2023-02-25T10:12:40;14.93;;;4.83;;
6394;SDS011;3230;42.588;23.358;2023-02-25T10:22:57;55.77;;;6.90;;
6394;SDS011;3230;42.588;23.358;2023-02-25T10:25:26;20.83;;;3.67;;
6394;SDS011;3230;42.588;23.358;2023-02-25T10:27:59;15.53;;;4.03;;
6394;SDS011;3230;42.588;23.358;2023-02-25T10:30:47;11.47;;;3.30;;
6394;SDS011;3230;42.588;23.358;2023-02-25T10:33:17;15.20;;;4.03;;
6394;SDS011;3230;42.588;23.358;2023-02-25T10:35:45;9.17;;;3.13;;
6394;SDS011;3230;42.588;23.358;2023-02-25T10:38:12;15.37;;;5.03;;
6394;SDS011;3230;42.588;23.358;2023-02-25T10:40:38;13.70;;;4.07;;
6394;SDS011;3230;42.588;23.358;2023-02-25T10:49:00;14.80;;;4.23;;
6394;SDS011;3230;42.588;23.358;2023-02-25T10:51:26;9.83;;;3.83;;
6394;SDS011;3230;42.588;23.358;2023-02-25T10:56:59;16.37;;;4.70;;
6394;SDS011;3230;42.588;23.358;2023-02-25T10:59:30;15.60;;;4.57;;
6394;SDS011;3230;42.588;23.358;2023-02-25T11:01:57;12.63;;;5.33;;
6394;SDS011;3230;42.588;23.358;2023-02-25T11:04:27;21.63;;;5.60;;
6394;SDS011;3230;42.588;23.358;2023-02-25T11:06:54;19.63;;;4.87;;
6394;SDS011;3230;42.588;23.358;2023-02-25T11:11:52;11.60;;;4.03;;
6394;SDS011;3230;42.588;23.358;2023-02-25T11:14:19;19.77;;;3.80;;
6394;SDS011;3230;42.588;23.358;2023-02-25T11:16:59;17.90;;;4.50;;
6394;SDS011;3230;42.588;23.358;2023-02-25T11:19:26;18.00;;;5.20;;
6394;SDS011;3230;42.588;23.358;2023-02-25T11:21:53;18.27;;;4.27;;
6394;SDS011;3230;42.588;23.358;2023-02-25T11:24:34;18.57;;;5.63;;
6394;SDS011;3230;42.588;23.358;2023-02-25T11:27:01;14.20;;;4.17;;
6394;SDS011;3230;42.588;23.358;2023-02-25T11:29:29;21.17;;;3.27;;
6394;SDS011;3230;42.588;23.358;2023-02-25T11:32:00;21.27;;;8.10;;
6394;SDS011;3230;42.588;23.358;2023-02-25T11:34:29;10.30;;;3.80;;
6394;SDS011;3230;42.588;23.358;2023-02-25T11:36:54;10.07;;;3.40;;
6394;SDS011;3230;42.588;23.358;2023-02-25T11:39:25;17.83;;;4.50;;
6394;SDS011;3230;42.588;23.358;2023-02-25T11:41:52;27.23;;;5.70;;
6394;SDS011;3230;42.588;23.358;2023-02-25T11:44:19;18.23;;;5.47;;
6394;SDS011;3230;42.588;23.358;2023-02-25T11:46:48;15.00;;;3.63;;
6394;SDS011;3230;42.588;23.358;2023-02-25T11:49:21;21.80;;;4.50;;
6394;SDS011;3230;42.588;23.358;2023-02-25T11:52:01;19.00;;;4.20;;
6394;SDS011;3230;42.588;23.358;2023-02-25T11:54:35;7.03;;;4.30;;
6394;SDS011;3230;42.588;23.358;2023-02-25T11:57:27;14.33;;;4.10;;
6394;SDS011;3230;42.588;23.358;2023-02-25T11:59:57;11.33;;;3.87;;
6394;SDS011;3230;42.588;23.358;2023-02-25T12:02:45;10.17;;;3.70;;
6394;SDS011;3230;42.588;23.358;2023-02-25T12:13:27;28.27;;;5.77;;
6394;SDS011;3230;42.588;23.358;2023-02-25T12:28:50;18.10;;;5.80;;
6394;SDS011;3230;42.588;23.358;2023-02-25T12:41:47;18.03;;;4.50;;
6394;SDS011;3230;42.588;23.358;2023-02-25T12:55:03;18.67;;;6.30;;
6394;SDS011;3230;42.588;23.358;2023-02-25T12:57:41;7.23;;;3.33;;
6394;SDS011;3230;42.588;23.358;2023-02-25T13:00:19;17.00;;;4.50;;
6394;SDS011;3230;42.588;23.358;2023-02-25T13:03:02;10.10;;;3.70;;
6394;SDS011;3230;42.588;23.358;2023-02-25T13:10:52;12.97;;;3.80;;
6394;SDS011;3230;42.588;23.358;2023-02-25T13:16:26;36.43;;;5.77;;
6394;SDS011;3230;42.588;23.358;2023-02-25T13:28:41;11.10;;;3.67;;
6394;SDS011;3230;42.588;23.358;2023-02-25T13:33:58;8.70;;;3.50;;
6394;SDS011;3230;42.588;23.358;2023-02-25T13:36:35;17.10;;;3.63;;
6394;SDS011;3230;42.588;23.358;2023-02-25T13:46:32;11.60;;;4.20;;
6394;SDS011;3230;42.588;23.358;2023-02-25T14:21:02;12.40;;;4.47;;
6394;SDS011;3230;42.588;23.358;2023-02-25T14:23:41;19.13;;;7.93;;
6394;SDS011;3230;42.588;23.358;2023-02-25T14:26:22;14.83;;;5.90;;
6394;SDS011;3230;42.588;23.358;2023-02-25T14:29:36;9.57;;;5.00;;
6394;SDS011;3230;42.588;23.358;2023-02-25T14:44:40;14.60;;;4.10;;
6394;SDS011;3230;42.588;23.358;2023-02-25T14:47:26;17.93;;;3.90;;
6394;SDS011;3230;42.588;23.358;2023-02-25T15:23:57;11.97;;;3.70;;
6394;SDS011;3230;42.588;23.358;2023-02-25T15:26:24;9.70;;;4.00;;
6394;SDS011;3230;42.588;23.358;2023-02-25T15:28:53;10.80;;;3.67;;
6394;SDS011;3230;42.588;23.358;2023-02-25T15:31:23;24.23;;;5.13;;
6394;SDS011;3230;42.588;23.358;2023-02-25T15:33:52;23.77;;;3.90;;
6394;SDS011;3230;42.588;23.358;2023-02-25T15:36:19;10.93;;;3.67;;
6394;SDS011;3230;42.588;23.358;2023-02-25T15:43:52;19.10;;;5.40;;
6394;SDS011;3230;42.588;23.358;2023-02-25T15:48:43;9.73;;;4.90;;
6394;SDS011;3230;42.588;23.358;2023-02-25T15:51:40;12.60;;;4.73;;
6394;SDS011;3230;42.588;23.358;2023-02-25T15:53:55;14.97;;;4.80;;
6394;SDS011;3230;42.588;23.358;2023-02-25T15:56:22;10.90;;;4.70;;
6394;SDS011;3230;42.588;23.358;2023-02-25T15:58:52;15.87;;;5.30;;
6394;SDS011;3230;42.588;23.358;2023-02-25T16:01:21;18.73;;;5.67;;
6394;SDS011;3230;42.588;23.358;2023-02-25T16:03:47;17.27;;;5.77;;
6394;SDS011;3230;42.588;23.358;2023-02-25T16:11:06;15.27;;;5.20;;
6394;SDS011;3230;42.588;23.358;2023-02-25T16:13:38;18.00;;;5.50;;
6394;SDS011;3230;42.588;23.358;2023-02-25T16:16:07;15.67;;;6.10;;
6394;SDS011;3230;42.588;23.358;2023-02-25T16:18:34;18.23;;;6.17;;
6394;SDS011;3230;42.588;23.358;2023-02-25T16:21:05;15.37;;;5.17;;
6394;SDS011;3230;42.588;23.358;2023-02-25T16:23:32;20.60;;;8.10;;
6394;SDS011;3230;42.588;23.358;2023-02-25T16:31:00;17.80;;;6.87;;
6394;SDS011;3230;42.588;23.358;2023-02-25T16:33:38;14.40;;;5.30;;
6394;SDS011;3230;42.588;23.358;2023-02-25T16:41:12;21.30;;;5.43;;
6394;SDS011;3230;42.588;23.358;2023-02-25T16:43:38;9.60;;;4.87;;
6394;SDS011;3230;42.588;23.358;2023-02-25T16:46:05;18.83;;;5.10;;
6394;SDS011;3230;42.588;23.358;2023-02-25T16:50:56;17.73;;;6.00;;
6394;SDS011;3230;42.588;23.358;2023-02-25T16:53:23;12.40;;;4.40;;
6394;SDS011;3230;42.588;23.358;2023-02-25T16:55:49;15.67;;;4.50;;
6394;SDS011;3230;42.588;23.358;2023-02-25T16:58:19;10.27;;;4.37;;
6394;SDS011;3230;42.588;23.358;2023-02-25T17:00:55;8.93;;;4.30;;
6394;SDS011;3230;42.588;23.358;2023-02-25T17:03:22;14.10;;;5.00;;
6394;SDS011;3230;42.588;23.358;2023-02-25T17:05:58;14.60;;;4.33;;
6394;SDS011;3230;42.588;23.358;2023-02-25T17:08:23;18.00;;;5.03;;
6394;SDS011;3230;42.588;23.358;2023-02-25T17:10:49;13.87;;;4.73;;
6394;SDS011;3230;42.588;23.358;2023-02-25T17:13:32;17.47;;;5.63;;
6394;SDS011;3230;42.588;23.358;2023-02-25T17:15:58;16.50;;;5.53;;
6394;SDS011;3230;42.588;23.358;2023-02-25T17:21:07;20.50;;;4.10;;
6394;SDS011;3230;42.588;23.358;2023-02-25T17:23:37;14.83;;;4.37;;
6394;SDS011;3230;42.588;23.358;2023-02-25T17:26:03;16.50;;;5.40;;
6394;SDS011;3230;42.588;23.358;2023-02-25T17:28:29;23.93;;;6.93;;
6394;SDS011;3230;42.588;23.358;2023-02-25T17:31:03;18.20;;;6.40;;
6394;SDS011;3230;42.588;23.358;2023-02-25T17:33:29;31.70;;;9.23;;
6394;SDS011;3230;42.588;23.358;2023-02-25T17:35:57;22.37;;;6.93;;
6394;SDS011;3230;42.588;23.358;2023-02-25T17:38:23;20.70;;;7.67;;
6394;SDS011;3230;42.588;23.358;2023-02-25T17:40:49;13.10;;;5.33;;
6394;SDS011;3230;42.588;23.358;2023-02-25T17:43:17;12.63;;;5.03;;
6394;SDS011;3230;42.588;23.358;2023-02-25T17:48:20;10.47;;;4.90;;
6394;SDS011;3230;42.588;23.358;2023-02-25T17:50:59;17.40;;;5.60;;
6394;SDS011;3230;42.588;23.358;2023-02-25T17:53:31;22.00;;;7.10;;
6394;SDS011;3230;42.588;23.358;2023-02-25T17:58:40;17.00;;;5.63;;
6394;SDS011;3230;42.588;23.358;2023-02-25T18:01:05;12.53;;;4.50;;
6394;SDS011;3230;42.588;23.358;2023-02-25T18:03:43;16.60;;;5.10;;
6394;SDS011;3230;42.588;23.358;2023-02-25T18:06:30;12.67;;;4.37;;
6394;SDS011;3230;42.588;23.358;2023-02-25T18:08:54;15.13;;;5.50;;
6394;SDS011;3230;42.588;23.358;2023-02-25T18:12:50;14.50;;;3.90;;
6394;SDS011;3230;42.588;23.358;2023-02-25T18:15:17;9.70;;;4.77;;
6394;SDS011;3230;42.588;23.358;2023-02-25T18:17:46;16.10;;;4.63;;
6394;SDS011;3230;42.588;23.358;2023-02-25T18:23:06;22.23;;;6.70;;
6394;SDS011;3230;42.588;23.358;2023-02-25T18:25:39;17.80;;;5.63;;
6394;SDS011;3230;42.588;23.358;2023-02-25T18:28:06;23.83;;;10.53;;
6394;SDS011;3230;42.588;23.358;2023-02-25T18:30:35;21.93;;;10.70;;
6394;SDS011;3230;42.588;23.358;2023-02-25T18:33:00;15.20;;;7.70;;
6394;SDS011;3230;42.588;23.358;2023-02-25T18:35:26;16.97;;;6.07;;
6394;SDS011;3230;42.588;23.358;2023-02-25T18:37:52;17.80;;;6.90;;
6394;SDS011;3230;42.588;23.358;2023-02-25T18:42:43;16.43;;;6.47;;
6394;SDS011;3230;42.588;23.358;2023-02-25T18:45:12;20.37;;;7.50;;
6394;SDS011;3230;42.588;23.358;2023-02-25T18:47:38;16.40;;;8.00;;
6394;SDS011;3230;42.588;23.358;2023-02-25T18:50:03;14.63;;;5.77;;
6394;SDS011;3230;42.588;23.358;2023-02-25T18:52:29;14.97;;;4.53;;
6394;SDS011;3230;42.588;23.358;2023-02-25T18:54:54;13.30;;;5.13;;
6394;SDS011;3230;42.588;23.358;2023-02-25T18:57:24;16.10;;;5.70;;
6394;SDS011;3230;42.588;23.358;2023-02-25T18:59:50;30.03;;;5.70;;